sensor_id;sensor_type;location;lat;lon;timestamp;pressure;altitude;pressure_sealevel;temperature;humidity
30744;BME280;17486;46.738;7.622;2023-05-29T00:01:26;95034.22;;;19.65;44.15
30744;BME280;17486;46.738;7.622;2023-05-29T00:03:51;95027.56;;;19.51;44.31
30744;BME280;17486;46.738;7.622;2023-05-29T00:06:18;95013.91;;;19.36;44.41
30744;BME280;17486;46.738;7.622;2023-05-29T00:08:44;95033.00;;;19.49;44.73
30744;BME280;17486;46.738;7.622;2023-05-29T00:11:09;95039.09;;;19.50;44.56
30744;BME280;17486;46.738;7.622;2023-05-29T00:13:35;95029.34;;;19.50;44.79
30744;BME280;17486;46.738;7.622;2023-05-29T00:16:00;95038.13;;;19.51;45.04
30744;BME280;17486;46.738;7.622;2023-05-29T00:18:26;95038.13;;;19.51;45.03
30744;BME280;17486;46.738;7.622;2023-05-29T00:20:52;95033.25;;;19.46;45.14
30744;BME280;17486;46.738;7.622;2023-05-29T00:23:18;95040.19;;;19.47;45.35
30744;BME280;17486;46.738;7.622;2023-05-29T00:25:44;95038.50;;;19.46;45.10
30744;BME280;17486;46.738;7.622;2023-05-29T00:28:09;95042.13;;;19.45;45.21
30744;BME280;17486;46.738;7.622;2023-05-29T00:30:37;95033.66;;;19.42;45.38
30744;BME280;17486;46.738;7.622;2023-05-29T00:33:02;95034.78;;;19.39;45.32
30744;BME280;17486;46.738;7.622;2023-05-29T00:35:27;95044.47;;;19.38;45.36
30744;BME280;17486;46.738;7.622;2023-05-29T00:37:53;95037.50;;;19.37;45.46
30744;BME280;17486;46.738;7.622;2023-05-29T00:40:18;95037.78;;;19.34;45.55
30744;BME280;17486;46.738;7.622;2023-05-29T00:42:43;95028.88;;;19.26;45.30
30744;BME280;17486;46.738;7.622;2023-05-29T00:45:11;95041.81;;;19.29;45.31
30744;BME280;17486;46.738;7.622;2023-05-29T00:47:41;95035.16;;;19.25;45.31
30744;BME280;17486;46.738;7.622;2023-05-29T00:50:08;95026.63;;;19.11;45.33
30744;BME280;17486;46.738;7.622;2023-05-29T00:52:43;95015.94;;;19.03;45.35
30744;BME280;17486;46.738;7.622;2023-05-29T00:55:09;95027.56;;;19.00;45.50
30744;BME280;17486;46.738;7.622;2023-05-29T00:57:37;95031.50;;;18.85;45.71
30744;BME280;17486;46.738;7.622;2023-05-29T01:00:05;95034.63;;;18.69;46.23
30744;BME280;17486;46.738;7.622;2023-05-29T01:02:36;95038.63;;;18.63;46.41
30744;BME280;17486;46.738;7.622;2023-05-29T01:05:01;95039.13;;;18.57;46.79
30744;BME280;17486;46.738;7.622;2023-05-29T01:07:26;95044.81;;;18.52;46.92
30744;BME280;17486;46.738;7.622;2023-05-29T01:09:54;95014.75;;;18.34;46.95
30744;BME280;17486;46.738;7.622;2023-05-29T01:12:29;95043.94;;;18.52;47.00
30744;BME280;17486;46.738;7.622;2023-05-29T01:20:57;95041.44;;;18.50;47.11
30744;BME280;17486;46.738;7.622;2023-05-29T01:28:36;95045.56;;;18.43;47.32
30744;BME280;17486;46.738;7.622;2023-05-29T01:31:03;95031.38;;;18.34;47.53
30744;BME280;17486;46.738;7.622;2023-05-29T01:33:29;95053.84;;;18.38;47.67
30744;BME280;17486;46.738;7.622;2023-05-29T01:35:57;95045.25;;;18.36;47.68
30744;BME280;17486;46.738;7.622;2023-05-29T01:38:30;95031.31;;;18.25;47.71
30744;BME280;17486;46.738;7.622;2023-05-29T01:40:55;95044.09;;;18.29;47.96
30744;BME280;17486;46.738;7.622;2023-05-29T01:43:23;95042.69;;;18.25;47.93
30744;BME280;17486;46.738;7.622;2023-05-29T01:45:49;95040.75;;;18.27;47.99
30744;BME280;17486;46.738;7.622;2023-05-29T01:48:17;95049.59;;;18.26;48.31
30744;BME280;17486;46.738;7.622;2023-05-29T01:50:45;95044.34;;;18.26;48.26
30744;BME280;17486;46.738;7.622;2023-05-29T01:53:12;95037.44;;;18.25;48.18
30744;BME280;17486;46.738;7.622;2023-05-29T01:55:40;95037.94;;;18.19;48.08
30744;BME280;17486;46.738;7.622;2023-05-29T01:58:09;95042.88;;;18.12;48.02
30744;BME280;17486;46.738;7.622;2023-05-29T02:00:35;95043.97;;;18.10;48.00
30744;BME280;17486;46.738;7.622;2023-05-29T02:03:01;95040.63;;;18.08;48.20
30744;BME280;17486;46.738;7.622;2023-05-29T02:05:27;95038.38;;;18.03;48.28
30744;BME280;17486;46.738;7.622;2023-05-29T02:07:52;95020.91;;;17.90;48.33
30744;BME280;17486;46.738;7.622;2023-05-29T02:10:27;95020.47;;;17.85;48.52
30744;BME280;17486;46.738;7.622;2023-05-29T02:12:52;95028.50;;;17.84;48.65
30744;BME280;17486;46.738;7.622;2023-05-29T02:15:20;95036.03;;;17.88;48.56
30744;BME280;17486;46.738;7.622;2023-05-29T02:17:45;95034.72;;;17.83;48.89
30744;BME280;17486;46.738;7.622;2023-05-29T02:20:11;95042.59;;;17.83;48.94
30744;BME280;17486;46.738;7.622;2023-05-29T02:22:37;95040.94;;;17.82;49.16
30744;BME280;17486;46.738;7.622;2023-05-29T02:25:02;95044.53;;;17.81;48.99
30744;BME280;17486;46.738;7.622;2023-05-29T02:27:27;95025.47;;;17.67;49.05
30744;BME280;17486;46.738;7.622;2023-05-29T02:29:53;95044.66;;;17.79;49.22
30744;BME280;17486;46.738;7.622;2023-05-29T02:32:18;95023.06;;;17.64;49.24
30744;BME280;17486;46.738;7.622;2023-05-29T02:34:44;95041.81;;;17.71;49.34
30744;BME280;17486;46.738;7.622;2023-05-29T02:37:12;95036.94;;;17.66;49.17
30744;BME280;17486;46.738;7.622;2023-05-29T02:39:37;95045.06;;;17.63;49.23
30744;BME280;17486;46.738;7.622;2023-05-29T02:42:10;95025.03;;;17.51;49.42
30744;BME280;17486;46.738;7.622;2023-05-29T02:44:35;95028.75;;;17.48;49.37
30744;BME280;17486;46.738;7.622;2023-05-29T02:47:01;94998.81;;;17.28;49.57
30744;BME280;17486;46.738;7.622;2023-05-29T02:49:26;95041.75;;;17.50;49.68
30744;BME280;17486;46.738;7.622;2023-05-29T02:52:01;95043.56;;;17.49;49.81
30744;BME280;17486;46.738;7.622;2023-05-29T02:54:26;95043.69;;;17.48;49.90
30744;BME280;17486;46.738;7.622;2023-05-29T02:56:52;95030.56;;;17.36;49.98
30744;BME280;17486;46.738;7.622;2023-05-29T02:59:18;95040.00;;;17.39;50.08
30744;BME280;17486;46.738;7.622;2023-05-29T03:01:43;95035.09;;;17.34;49.92
30744;BME280;17486;46.738;7.622;2023-05-29T03:04:12;95042.88;;;17.36;50.26
30744;BME280;17486;46.738;7.622;2023-05-29T03:06:37;95040.38;;;17.23;50.18
30744;BME280;17486;46.738;7.622;2023-05-29T03:09:03;95023.22;;;17.07;50.65
30744;BME280;17486;46.738;7.622;2023-05-29T03:11:33;95031.56;;;17.13;50.59
30744;BME280;17486;46.738;7.622;2023-05-29T03:14:01;95035.88;;;17.14;50.78
30744;BME280;17486;46.738;7.622;2023-05-29T03:16:26;95039.44;;;17.13;50.65
30744;BME280;17486;46.738;7.622;2023-05-29T03:18:54;95038.03;;;17.09;50.63
30744;BME280;17486;46.738;7.622;2023-05-29T03:21:27;95031.34;;;17.04;50.61
30744;BME280;17486;46.738;7.622;2023-05-29T03:23:52;95027.25;;;17.00;51.26
30744;BME280;17486;46.738;7.622;2023-05-29T03:26:28;95031.56;;;17.01;50.93
30744;BME280;17486;46.738;7.622;2023-05-29T03:28:54;95029.53;;;16.94;51.16
30744;BME280;17486;46.738;7.622;2023-05-29T03:31:27;95037.31;;;16.95;50.76
30744;BME280;17486;46.738;7.622;2023-05-29T03:33:52;95034.41;;;16.87;51.02
30744;BME280;17486;46.738;7.622;2023-05-29T03:36:18;95027.72;;;16.71;51.03
30744;BME280;17486;46.738;7.622;2023-05-29T03:38:43;95044.44;;;16.70;51.27
30744;BME280;17486;46.738;7.622;2023-05-29T03:41:08;95052.06;;;16.62;51.67
30744;BME280;17486;46.738;7.622;2023-05-29T03:43:34;95046.34;;;16.46;52.30
30744;BME280;17486;46.738;7.622;2023-05-29T03:46:05;95048.19;;;16.32;52.22
30744;BME280;17486;46.738;7.622;2023-05-29T03:48:30;95036.00;;;16.20;52.45
30744;BME280;17486;46.738;7.622;2023-05-29T03:50:56;95056.75;;;16.23;52.65
30744;BME280;17486;46.738;7.622;2023-05-29T03:53:21;95051.53;;;16.23;52.68
30744;BME280;17486;46.738;7.622;2023-05-29T03:55:49;95051.63;;;16.21;53.22
30744;BME280;17486;46.738;7.622;2023-05-29T03:58:14;95050.81;;;16.21;52.77
30744;BME280;17486;46.738;7.622;2023-05-29T04:00:44;95049.88;;;16.22;52.66
30744;BME280;17486;46.738;7.622;2023-05-29T04:03:14;95050.81;;;16.32;52.94
30744;BME280;17486;46.738;7.622;2023-05-29T04:05:41;95038.78;;;16.30;52.52
30744;BME280;17486;46.738;7.622;2023-05-29T04:08:09;95054.41;;;16.42;52.99
30744;BME280;17486;46.738;7.622;2023-05-29T04:10:36;95057.53;;;16.48;52.79
30744;BME280;17486;46.738;7.622;2023-05-29T04:13:04;95051.31;;;16.37;52.85
30744;BME280;17486;46.738;7.622;2023-05-29T04:15:29;95065.28;;;16.38;52.82
30744;BME280;17486;46.738;7.622;2023-05-29T04:17:59;95051.19;;;16.28;52.83
30744;BME280;17486;46.738;7.622;2023-05-29T04:20:24;95059.31;;;16.24;53.09
30744;BME280;17486;46.738;7.622;2023-05-29T04:22:52;95054.38;;;16.20;53.15
30744;BME280;17486;46.738;7.622;2023-05-29T04:25:18;95051.03;;;16.18;52.78
30744;BME280;17486;46.738;7.622;2023-05-29T04:27:44;95069.44;;;16.29;52.96
30744;BME280;17486;46.738;7.622;2023-05-29T04:30:14;95070.50;;;16.27;52.90
30744;BME280;17486;46.738;7.622;2023-05-29T04:32:39;95073.25;;;16.25;52.61
30744;BME280;17486;46.738;7.622;2023-05-29T04:35:05;95073.00;;;16.17;52.66
30744;BME280;17486;46.738;7.622;2023-05-29T04:37:31;95040.97;;;16.00;52.85
30744;BME280;17486;46.738;7.622;2023-05-29T04:40:06;95069.31;;;16.19;52.97
30744;BME280;17486;46.738;7.622;2023-05-29T04:42:36;95066.31;;;16.13;52.84
30744;BME280;17486;46.738;7.622;2023-05-29T04:45:05;95069.38;;;16.18;52.63
30744;BME280;17486;46.738;7.622;2023-05-29T04:47:31;95060.09;;;16.14;52.67
30744;BME280;17486;46.738;7.622;2023-05-29T04:49:59;95077.19;;;16.31;52.58
30744;BME280;17486;46.738;7.622;2023-05-29T04:52:25;95087.69;;;16.31;52.17
30744;BME280;17486;46.738;7.622;2023-05-29T04:54:55;95075.88;;;16.25;51.92
30744;BME280;17486;46.738;7.622;2023-05-29T04:57:23;95045.06;;;16.16;51.98
30744;BME280;17486;46.738;7.622;2023-05-29T04:59:49;95080.09;;;16.50;51.84
30744;BME280;17486;46.738;7.622;2023-05-29T05:02:14;95062.09;;;16.46;51.56
30744;BME280;17486;46.738;7.622;2023-05-29T05:04:42;95080.72;;;16.65;51.79
30744;BME280;17486;46.738;7.622;2023-05-29T05:07:15;95083.34;;;16.77;51.67
30744;BME280;17486;46.738;7.622;2023-05-29T05:09:42;95069.53;;;16.74;51.41
30744;BME280;17486;46.738;7.622;2023-05-29T05:12:08;95088.19;;;16.94;51.04
30744;BME280;17486;46.738;7.622;2023-05-29T05:14:35;95078.63;;;17.04;50.73
30744;BME280;17486;46.738;7.622;2023-05-29T05:17:06;95083.16;;;17.14;51.20
30744;BME280;17486;46.738;7.622;2023-05-29T05:19:31;95083.28;;;17.23;51.36
30744;BME280;17486;46.738;7.622;2023-05-29T05:21:57;95077.88;;;17.25;51.30
30744;BME280;17486;46.738;7.622;2023-05-29T05:24:22;95083.59;;;17.42;50.91
30744;BME280;17486;46.738;7.622;2023-05-29T05:26:47;95080.50;;;17.48;50.74
30744;BME280;17486;46.738;7.622;2023-05-29T05:29:15;95082.63;;;17.54;50.79
30744;BME280;17486;46.738;7.622;2023-05-29T05:31:43;95090.28;;;17.57;50.69
30744;BME280;17486;46.738;7.622;2023-05-29T05:34:21;95086.78;;;17.56;50.54
30744;BME280;17486;46.738;7.622;2023-05-29T05:36:46;95089.91;;;17.62;50.53
30744;BME280;17486;46.738;7.622;2023-05-29T05:39:14;95074.25;;;17.60;50.43
30744;BME280;17486;46.738;7.622;2023-05-29T05:41:40;95084.28;;;17.66;50.60
30744;BME280;17486;46.738;7.622;2023-05-29T05:44:12;95085.56;;;17.72;50.61
30744;BME280;17486;46.738;7.622;2023-05-29T05:46:42;95061.09;;;17.60;50.57
30744;BME280;17486;46.738;7.622;2023-05-29T05:49:25;95097.28;;;17.79;50.39
30744;BME280;17486;46.738;7.622;2023-05-29T05:51:50;95084.00;;;17.81;50.51
30744;BME280;17486;46.738;7.622;2023-05-29T05:54:16;95093.53;;;17.93;50.36
30744;BME280;17486;46.738;7.622;2023-05-29T05:56:41;95095.69;;;17.99;50.46
30744;BME280;17486;46.738;7.622;2023-05-29T05:59:07;95099.94;;;18.12;50.16
30744;BME280;17486;46.738;7.622;2023-05-29T06:01:34;95100.28;;;18.18;50.04
30744;BME280;17486;46.738;7.622;2023-05-29T06:04:01;95099.88;;;18.23;50.15
30744;BME280;17486;46.738;7.622;2023-05-29T06:06:29;95094.50;;;18.25;50.03
30744;BME280;17486;46.738;7.622;2023-05-29T06:09:01;95096.63;;;18.31;49.91
30744;BME280;17486;46.738;7.622;2023-05-29T06:11:27;95104.47;;;18.42;49.91
30744;BME280;17486;46.738;7.622;2023-05-29T06:13:53;95105.16;;;18.44;49.90
30744;BME280;17486;46.738;7.622;2023-05-29T06:16:20;95088.34;;;18.35;49.66
30744;BME280;17486;46.738;7.622;2023-05-29T06:18:48;95086.28;;;18.39;50.03
30744;BME280;17486;46.738;7.622;2023-05-29T06:21:13;95102.16;;;18.49;49.66
30744;BME280;17486;46.738;7.622;2023-05-29T06:23:41;95099.41;;;18.50;49.86
30744;BME280;17486;46.738;7.622;2023-05-29T06:26:09;95100.50;;;18.48;49.78
30744;BME280;17486;46.738;7.622;2023-05-29T06:28:37;95105.81;;;18.58;49.86
30744;BME280;17486;46.738;7.622;2023-05-29T06:31:06;95108.06;;;18.62;49.91
30744;BME280;17486;46.738;7.622;2023-05-29T06:33:31;95106.47;;;18.71;49.87
30744;BME280;17486;46.738;7.622;2023-05-29T06:35:57;95098.75;;;18.79;49.73
30744;BME280;17486;46.738;7.622;2023-05-29T06:38:22;95101.53;;;18.87;49.36
30744;BME280;17486;46.738;7.622;2023-05-29T06:40:47;95101.38;;;19.00;49.19
30744;BME280;17486;46.738;7.622;2023-05-29T06:43:15;95079.59;;;18.98;48.78
30744;BME280;17486;46.738;7.622;2023-05-29T06:45:41;95086.16;;;19.14;48.58
30744;BME280;17486;46.738;7.622;2023-05-29T06:50:54;95086.59;;;19.19;47.84
30744;BME280;17486;46.738;7.622;2023-05-29T06:53:19;95059.34;;;18.99;47.56
30744;BME280;17486;46.738;7.622;2023-05-29T06:55:52;95102.41;;;19.19;47.75
30744;BME280;17486;46.738;7.622;2023-05-29T06:58:18;95094.06;;;19.14;47.58
30744;BME280;17486;46.738;7.622;2023-05-29T07:00:43;95098.66;;;19.12;47.62
30744;BME280;17486;46.738;7.622;2023-05-29T07:03:08;95092.00;;;19.17;47.76
30744;BME280;17486;46.738;7.622;2023-05-29T07:05:36;95104.50;;;19.15;47.56
30744;BME280;17486;46.738;7.622;2023-05-29T07:08:01;95096.19;;;19.20;47.72
30744;BME280;17486;46.738;7.622;2023-05-29T07:10:47;95091.91;;;19.29;47.97
30744;BME280;17486;46.738;7.622;2023-05-29T07:13:16;95084.84;;;19.29;48.05
30744;BME280;17486;46.738;7.622;2023-05-29T07:15:49;95091.94;;;19.38;47.91
30744;BME280;17486;46.738;7.622;2023-05-29T07:18:15;95086.28;;;19.43;47.99
30744;BME280;17486;46.738;7.622;2023-05-29T07:20:51;95088.94;;;19.53;48.29
30744;BME280;17486;46.738;7.622;2023-05-29T07:23:16;95091.31;;;19.66;47.98
30744;BME280;17486;46.738;7.622;2023-05-29T07:25:41;95097.31;;;19.78;47.65
30744;BME280;17486;46.738;7.622;2023-05-29T07:28:09;95102.50;;;19.89;47.47
30744;BME280;17486;46.738;7.622;2023-05-29T07:30:34;95092.63;;;19.91;47.05
30744;BME280;17486;46.738;7.622;2023-05-29T07:33:05;95096.13;;;20.01;46.73
30744;BME280;17486;46.738;7.622;2023-05-29T07:35:38;95065.00;;;19.85;46.70
30744;BME280;17486;46.738;7.622;2023-05-29T07:38:19;95113.22;;;20.17;46.21
30744;BME280;17486;46.738;7.622;2023-05-29T07:40:44;95098.91;;;20.19;46.25
30744;BME280;17486;46.738;7.622;2023-05-29T07:43:09;95097.50;;;20.25;46.45
30744;BME280;17486;46.738;7.622;2023-05-29T07:45:35;95092.22;;;20.25;47.56
30744;BME280;17486;46.738;7.622;2023-05-29T07:48:03;95107.09;;;20.46;47.70
30744;BME280;17486;46.738;7.622;2023-05-29T07:50:28;95105.84;;;20.60;47.30
30744;BME280;17486;46.738;7.622;2023-05-29T07:52:54;95105.28;;;20.76;46.58
30744;BME280;17486;46.738;7.622;2023-05-29T07:55:21;95096.78;;;20.82;45.55
30744;BME280;17486;46.738;7.622;2023-05-29T07:57:51;94985.78;;;20.25;45.78
30744;BME280;17486;46.738;7.622;2023-05-29T08:00:28;95095.75;;;21.02;44.81
30744;BME280;17486;46.738;7.622;2023-05-29T08:03:01;95102.13;;;21.10;44.50
30744;BME280;17486;46.738;7.622;2023-05-29T08:05:28;95107.13;;;21.13;44.22
30744;BME280;17486;46.738;7.622;2023-05-29T08:08:03;95093.50;;;21.08;43.54
30744;BME280;17486;46.738;7.622;2023-05-29T08:10:29;95095.16;;;21.09;43.74
30744;BME280;17486;46.738;7.622;2023-05-29T08:12:57;95084.31;;;21.12;44.06
30744;BME280;17486;46.738;7.622;2023-05-29T08:15:25;95086.09;;;21.21;43.63
30744;BME280;17486;46.738;7.622;2023-05-29T08:17:53;95090.63;;;21.29;42.94
30744;BME280;17486;46.738;7.622;2023-05-29T08:20:36;95072.72;;;21.23;42.57
30744;BME280;17486;46.738;7.622;2023-05-29T08:23:02;95076.97;;;21.33;41.52
30744;BME280;17486;46.738;7.622;2023-05-29T08:25:36;95066.69;;;21.30;42.73
30744;BME280;17486;46.738;7.622;2023-05-29T08:28:21;95080.50;;;21.52;42.62
30744;BME280;17486;46.738;7.622;2023-05-29T08:30:49;95081.53;;;21.69;42.93
30744;BME280;17486;46.738;7.622;2023-05-29T08:33:17;95065.88;;;21.76;42.77
30744;BME280;17486;46.738;7.622;2023-05-29T08:35:48;95067.03;;;21.91;42.65
30744;BME280;17486;46.738;7.622;2023-05-29T08:38:13;95072.94;;;22.03;42.56
30744;BME280;17486;46.738;7.622;2023-05-29T08:40:39;95050.19;;;21.92;41.86
30744;BME280;17486;46.738;7.622;2023-05-29T08:43:15;95061.00;;;21.99;42.08
30744;BME280;17486;46.738;7.622;2023-05-29T08:45:47;95074.53;;;22.14;41.05
30744;BME280;17486;46.738;7.622;2023-05-29T08:48:17;95073.72;;;22.13;41.11
30744;BME280;17486;46.738;7.622;2023-05-29T08:51:02;95073.94;;;22.20;41.84
30744;BME280;17486;46.738;7.622;2023-05-29T08:53:30;95071.97;;;22.22;42.72
30744;BME280;17486;46.738;7.622;2023-05-29T08:58:43;95075.00;;;22.45;43.95
30744;BME280;17486;46.738;7.622;2023-05-29T09:01:09;95067.50;;;22.59;43.43
30744;BME280;17486;46.738;7.622;2023-05-29T09:03:41;95065.59;;;22.69;43.35
30744;BME280;17486;46.738;7.622;2023-05-29T09:06:07;95075.28;;;22.87;42.51
30744;BME280;17486;46.738;7.622;2023-05-29T09:08:40;95065.88;;;22.92;42.05
30744;BME280;17486;46.738;7.622;2023-05-29T09:11:08;95078.97;;;22.94;42.07
30744;BME280;17486;46.738;7.622;2023-05-29T09:13:33;95079.66;;;22.96;42.84
30744;BME280;17486;46.738;7.622;2023-05-29T09:16:01;95082.34;;;23.04;42.88
30744;BME280;17486;46.738;7.622;2023-05-29T09:18:33;95072.25;;;23.08;42.48
30744;BME280;17486;46.738;7.622;2023-05-29T09:21:07;95067.03;;;23.16;42.56
30744;BME280;17486;46.738;7.622;2023-05-29T09:23:35;95065.72;;;23.20;41.51
30744;BME280;17486;46.738;7.622;2023-05-29T09:26:02;95058.97;;;23.26;42.21
30744;BME280;17486;46.738;7.622;2023-05-29T09:28:30;95041.88;;;23.28;41.93
30744;BME280;17486;46.738;7.622;2023-05-29T09:31:02;95048.19;;;23.35;41.85
30744;BME280;17486;46.738;7.622;2023-05-29T09:33:46;95052.59;;;23.61;41.38
30744;BME280;17486;46.738;7.622;2023-05-29T09:36:22;95060.47;;;23.79;40.57
30744;BME280;17486;46.738;7.622;2023-05-29T09:38:51;95065.63;;;23.89;39.80
30744;BME280;17486;46.738;7.622;2023-05-29T09:41:23;95064.84;;;23.97;40.11
30744;BME280;17486;46.738;7.622;2023-05-29T09:43:52;95064.66;;;23.98;39.52
30744;BME280;17486;46.738;7.622;2023-05-29T09:46:20;95051.88;;;23.94;39.38
30744;BME280;17486;46.738;7.622;2023-05-29T09:48:45;95048.56;;;23.92;40.06
30744;BME280;17486;46.738;7.622;2023-05-29T09:51:23;95062.19;;;24.05;43.10
30744;BME280;17486;46.738;7.622;2023-05-29T09:53:49;95060.19;;;24.15;41.36
30744;BME280;17486;46.738;7.622;2023-05-29T09:56:30;95059.72;;;24.20;40.53
30744;BME280;17486;46.738;7.622;2023-05-29T09:58:56;95048.75;;;24.23;39.54
30744;BME280;17486;46.738;7.622;2023-05-29T10:01:23;95042.09;;;24.19;38.99
30744;BME280;17486;46.738;7.622;2023-05-29T10:03:59;95046.75;;;24.33;38.67
30744;BME280;17486;46.738;7.622;2023-05-29T10:06:39;95043.09;;;24.43;38.53
30744;BME280;17486;46.738;7.622;2023-05-29T10:09:09;95022.66;;;24.52;37.43
30744;BME280;17486;46.738;7.622;2023-05-29T10:11:43;95044.41;;;24.80;37.40
30744;BME280;17486;46.738;7.622;2023-05-29T10:14:12;95044.72;;;24.85;37.18
30744;BME280;17486;46.738;7.622;2023-05-29T10:16:42;95039.41;;;24.85;36.98
30744;BME280;17486;46.738;7.622;2023-05-29T10:19:12;95031.09;;;24.80;37.12
30744;BME280;17486;46.738;7.622;2023-05-29T10:21:55;95033.78;;;24.80;36.67
30744;BME280;17486;46.738;7.622;2023-05-29T10:27:09;95033.78;;;24.88;36.30
30744;BME280;17486;46.738;7.622;2023-05-29T10:29:45;95021.47;;;24.87;37.17
30744;BME280;17486;46.738;7.622;2023-05-29T10:32:31;95020.94;;;25.00;37.25
30744;BME280;17486;46.738;7.622;2023-05-29T10:37:40;94989.78;;;25.17;37.06
30744;BME280;17486;46.738;7.622;2023-05-29T10:40:10;95024.25;;;25.50;37.03
30744;BME280;17486;46.738;7.622;2023-05-29T10:42:49;95019.84;;;25.65;36.04
30744;BME280;17486;46.738;7.622;2023-05-29T10:50:57;95008.50;;;25.72;34.72
30744;BME280;17486;46.738;7.622;2023-05-29T10:53:31;95007.66;;;25.71;34.34
30744;BME280;17486;46.738;7.622;2023-05-29T10:56:10;95011.44;;;25.77;34.30
30744;BME280;17486;46.738;7.622;2023-05-29T10:58:41;94980.91;;;25.64;34.04
30744;BME280;17486;46.738;7.622;2023-05-29T11:01:12;95001.25;;;25.80;34.58
30744;BME280;17486;46.738;7.622;2023-05-29T11:03:55;94994.75;;;25.83;34.15
30744;BME280;17486;46.738;7.622;2023-05-29T11:06:36;95000.63;;;26.02;33.90
30744;BME280;17486;46.738;7.622;2023-05-29T11:11:43;94994.81;;;26.44;33.39
30744;BME280;17486;46.738;7.622;2023-05-29T11:14:28;95001.25;;;26.50;33.04
30744;BME280;17486;46.738;7.622;2023-05-29T11:16:53;94992.91;;;26.53;32.45
30744;BME280;17486;46.738;7.622;2023-05-29T11:19:24;94990.13;;;26.46;32.39
30744;BME280;17486;46.738;7.622;2023-05-29T11:21:59;94981.00;;;26.41;32.42
30744;BME280;17486;46.738;7.622;2023-05-29T11:24:28;94980.81;;;26.42;32.30
30744;BME280;17486;46.738;7.622;2023-05-29T11:26:57;94981.22;;;26.54;32.12
30744;BME280;17486;46.738;7.622;2023-05-29T11:29:34;94987.28;;;26.63;32.78
30744;BME280;17486;46.738;7.622;2023-05-29T11:32:16;94982.91;;;26.70;31.84
30744;BME280;17486;46.738;7.622;2023-05-29T11:34:52;94979.06;;;26.88;31.41
30744;BME280;17486;46.738;7.622;2023-05-29T11:37:30;94969.00;;;27.05;30.14
30744;BME280;17486;46.738;7.622;2023-05-29T11:40:22;94960.44;;;27.24;30.34
30744;BME280;17486;46.738;7.622;2023-05-29T11:43:08;94967.50;;;27.32;29.22
30744;BME280;17486;46.738;7.622;2023-05-29T11:45:50;94953.50;;;27.30;29.37
30744;BME280;17486;46.738;7.622;2023-05-29T11:48:15;94935.94;;;27.36;29.43
30744;BME280;17486;46.738;7.622;2023-05-29T11:50:43;94943.28;;;27.34;29.84
30744;BME280;17486;46.738;7.622;2023-05-29T11:53:11;94933.00;;;27.30;30.05
30744;BME280;17486;46.738;7.622;2023-05-29T11:55:39;94944.03;;;27.42;29.23
30744;BME280;17486;46.738;7.622;2023-05-29T11:58:07;94951.38;;;27.55;29.61
30744;BME280;17486;46.738;7.622;2023-05-29T12:00:34;94962.59;;;27.66;29.24
30744;BME280;17486;46.738;7.622;2023-05-29T12:03:07;94964.38;;;27.80;29.45
30744;BME280;17486;46.738;7.622;2023-05-29T12:05:44;94966.06;;;28.03;29.14
30744;BME280;17486;46.738;7.622;2023-05-29T12:08:10;94955.31;;;28.24;28.67
30744;BME280;17486;46.738;7.622;2023-05-29T12:10:48;94961.41;;;28.40;28.49
30744;BME280;17486;46.738;7.622;2023-05-29T12:13:20;94958.78;;;28.46;28.36
30744;BME280;17486;46.738;7.622;2023-05-29T12:16:03;94957.78;;;28.48;28.75
30744;BME280;17486;46.738;7.622;2023-05-29T12:18:47;94966.84;;;28.53;28.21
30744;BME280;17486;46.738;7.622;2023-05-29T12:21:23;94968.75;;;28.59;28.05
30744;BME280;17486;46.738;7.622;2023-05-29T12:23:52;94970.50;;;28.67;28.08
30744;BME280;17486;46.738;7.622;2023-05-29T12:26:25;94970.53;;;28.74;28.36
30744;BME280;17486;46.738;7.622;2023-05-29T12:28:51;94956.34;;;28.73;27.85
30744;BME280;17486;46.738;7.622;2023-05-29T12:31:30;94972.31;;;28.95;28.43
30744;BME280;17486;46.738;7.622;2023-05-29T12:34:08;94959.81;;;29.09;28.06
30744;BME280;17486;46.738;7.622;2023-05-29T12:36:34;94975.00;;;29.30;27.69
30744;BME280;17486;46.738;7.622;2023-05-29T12:39:09;94976.03;;;29.36;27.88
30744;BME280;17486;46.738;7.622;2023-05-29T12:41:45;94970.72;;;29.42;28.03
30744;BME280;17486;46.738;7.622;2023-05-29T12:44:25;94961.22;;;29.40;27.96
30744;BME280;17486;46.738;7.622;2023-05-29T12:47:16;94976.72;;;29.51;27.34
30744;BME280;17486;46.738;7.622;2023-05-29T12:49:49;94964.56;;;29.55;27.98
30744;BME280;17486;46.738;7.622;2023-05-29T12:52:14;94972.44;;;29.64;27.65
30744;BME280;17486;46.738;7.622;2023-05-29T12:54:42;94972.03;;;29.73;27.21
30744;BME280;17486;46.738;7.622;2023-05-29T12:57:27;94984.22;;;29.83;27.95
30744;BME280;17486;46.738;7.622;2023-05-29T12:59:55;94980.56;;;30.04;27.28
30744;BME280;17486;46.738;7.622;2023-05-29T13:02:26;94976.50;;;30.15;27.04
30744;BME280;17486;46.738;7.622;2023-05-29T13:05:01;94977.94;;;30.17;26.91
30744;BME280;17486;46.738;7.622;2023-05-29T13:08:04;94975.44;;;30.16;27.11
30744;BME280;17486;46.738;7.622;2023-05-29T13:10:35;94970.28;;;30.21;27.02
30744;BME280;17486;46.738;7.622;2023-05-29T13:16:21;94953.75;;;29.97;26.63
30744;BME280;17486;46.738;7.622;2023-05-29T13:18:56;94976.44;;;29.94;26.42
30744;BME280;17486;46.738;7.622;2023-05-29T13:21:29;94977.88;;;29.90;26.78
30744;BME280;17486;46.738;7.622;2023-05-29T13:24:14;94966.56;;;30.02;26.48
30744;BME280;17486;46.738;7.622;2023-05-29T13:26:41;94963.28;;;30.20;26.52
30744;BME280;17486;46.738;7.622;2023-05-29T13:29:12;94971.13;;;30.35;26.00
30744;BME280;17486;46.738;7.622;2023-05-29T13:31:47;94949.66;;;30.35;26.17
30744;BME280;17486;46.738;7.622;2023-05-29T13:34:20;94967.19;;;30.44;26.03
30744;BME280;17486;46.738;7.622;2023-05-29T13:37:00;94970.31;;;30.41;25.87
30744;BME280;17486;46.738;7.622;2023-05-29T13:39:27;94967.84;;;30.46;26.11
30744;BME280;17486;46.738;7.622;2023-05-29T13:42:03;94956.03;;;30.40;26.02
30744;BME280;17486;46.738;7.622;2023-05-29T13:44:34;94955.66;;;30.50;25.92
30744;BME280;17486;46.738;7.622;2023-05-29T13:47:00;94962.06;;;30.49;26.09